PWSweather.com
Personal Weather Stations
Station Observations

SkegnessGB

Lat: 53.147585, Lon: 0.345774

Elevation: 18

Station Type: Fine Offset WH3080

http://www.skegnessweather.info/

High Low Average
Temperature 32.7°F0.4°C 28.0°F-2.2°C 30.8°F-0.7°C
Dew Point 24.1°F-4.4°C 21.2°F-6.0°C 22.4°F-5.3°C
Winds 18.6 mph 29.9 kmh 9.3 mph 15.0 kmh 15.0 mph E24.1 kmh E
Wind Gusts 26.8 mph43.1 kmh 10.8 mph17.4 kmh 18.0 mph29.0 kmh
Humidity 85% 64% 71%
Pressure 29.95 in1014.2 mb 29.80 in1009.1 mb -
Precipitation 0.00 in0.0 mm - -
Hour Temp Dew Point Humidity Winds Wind Gusts Pressure Precip Precip Rate Daily Precip Total
12:00 AM 28.0°F-2.2°C 24.1°F-4.4°C 85% 14.6 mph N23.5 kmh N 20.9 mph33.6 kmh 29.81 in1009.5 mb 0.00 in0.0 mm 0.00 in0.0 mm 0.00 in0.0 mm
12:10 AM 28.2°F-2.1°C 24.0°F-4.4°C 84% 13.0 mph N20.9 kmh N 16.0 mph25.7 kmh 29.82 in1009.8 mb 0.00 in0.0 mm 0.00 in0.0 mm 0.00 in0.0 mm
12:20 AM 28.2°F-2.1°C 23.7°F-4.6°C 83% 12.7 mph N20.4 kmh N 20.2 mph32.5 kmh 29.81 in1009.5 mb 0.00 in0.0 mm 0.00 in0.0 mm 0.00 in0.0 mm
12:30 AM 28.8°F-1.8°C 23.4°F-4.8°C 80% 14.0 mph NE22.5 kmh NE 18.5 mph29.8 kmh 29.82 in1009.8 mb 0.00 in0.0 mm 0.00 in0.0 mm 0.00 in0.0 mm
12:40 AM 29.1°F-1.6°C 23.1°F-4.9°C 78% 14.6 mph W23.5 kmh W 16.7 mph26.9 kmh 29.82 in1009.8 mb 0.00 in0.0 mm 0.00 in0.0 mm 0.00 in0.0 mm
12:50 AM 29.3°F-1.5°C 22.7°F-5.2°C 76% 14.7 mph N23.7 kmh N 18.5 mph29.8 kmh 29.82 in1009.8 mb 0.00 in0.0 mm 0.00 in0.0 mm 0.00 in0.0 mm
01:00 AM 29.3°F-1.5°C 22.7°F-5.2°C 76% 17.2 mph NNE27.7 kmh NNE 18.5 mph29.8 kmh 29.82 in1009.8 mb 0.00 in0.0 mm 0.00 in0.0 mm 0.00 in0.0 mm
01:10 AM 29.3°F-1.5°C 22.7°F-5.2°C 76% 14.8 mph E23.8 kmh E 16.0 mph25.7 kmh 29.82 in1009.8 mb 0.00 in0.0 mm 0.00 in0.0 mm 0.00 in0.0 mm
01:20 AM 29.1°F-1.6°C 22.5°F-5.3°C 76% 15.9 mph NNE25.6 kmh NNE 24.4 mph39.3 kmh 29.81 in1009.5 mb 0.00 in0.0 mm 0.00 in0.0 mm 0.00 in0.0 mm
01:30 AM 29.3°F-1.5°C 23.0°F-5.0°C 77% 14.7 mph NE23.7 kmh NE 22.6 mph36.4 kmh 29.82 in1009.8 mb 0.00 in0.0 mm 0.00 in0.0 mm 0.00 in0.0 mm
01:40 AM 29.3°F-1.5°C 23.3°F-4.8°C 78% 13.5 mph NNW21.7 kmh NNW 17.5 mph28.2 kmh 29.81 in1009.5 mb 0.00 in0.0 mm 0.00 in0.0 mm 0.00 in0.0 mm
01:50 AM 28.9°F-1.7°C 23.2°F-4.9°C 79% 12.5 mph N20.1 kmh N 19.2 mph30.9 kmh 29.82 in1009.8 mb 0.00 in0.0 mm 0.00 in0.0 mm 0.00 in0.0 mm
02:00 AM 28.9°F-1.7°C 22.9°F-5.1°C 78% 13.7 mph NNE22.0 kmh NNE 19.2 mph30.9 kmh 29.82 in1009.8 mb 0.00 in0.0 mm 0.00 in0.0 mm 0.00 in0.0 mm
02:10 AM 29.3°F-1.5°C 22.4°F-5.3°C 75% 15.4 mph N24.8 kmh N 25.1 mph40.4 kmh 29.81 in1009.5 mb 0.00 in0.0 mm 0.00 in0.0 mm 0.00 in0.0 mm
02:20 AM 29.3°F-1.5°C 22.4°F-5.3°C 75% 12.2 mph N19.6 kmh N 23.4 mph37.7 kmh 29.81 in1009.5 mb 0.00 in0.0 mm 0.00 in0.0 mm 0.00 in0.0 mm
02:30 AM 29.5°F-1.4°C 21.9°F-5.6°C 73% 16.1 mph NNE25.9 kmh NNE 19.2 mph30.9 kmh 29.81 in1009.5 mb 0.00 in0.0 mm 0.00 in0.0 mm 0.00 in0.0 mm
02:40 AM 29.7°F-1.3°C 22.4°F-5.3°C 74% 13.7 mph N22.0 kmh N 18.5 mph29.8 kmh 29.81 in1009.5 mb 0.00 in0.0 mm 0.00 in0.0 mm 0.00 in0.0 mm
02:50 AM 29.5°F-1.4°C 21.9°F-5.6°C 73% 14.3 mph NNE23.0 kmh NNE 18.5 mph29.8 kmh 29.81 in1009.5 mb 0.00 in0.0 mm 0.00 in0.0 mm 0.00 in0.0 mm
03:00 AM 29.8°F-1.2°C 21.9°F-5.6°C 72% 14.4 mph NW23.2 kmh NW 17.5 mph28.2 kmh 29.80 in1009.1 mb 0.00 in0.0 mm 0.00 in0.0 mm 0.00 in0.0 mm
03:10 AM 29.8°F-1.2°C 21.9°F-5.6°C 72% 10.8 mph NE17.4 kmh NE 16.7 mph26.9 kmh 29.82 in1009.8 mb 0.00 in0.0 mm 0.00 in0.0 mm 0.00 in0.0 mm
03:20 AM 29.8°F-1.2°C 21.9°F-5.6°C 72% 15.9 mph N25.6 kmh N 19.2 mph30.9 kmh 29.81 in1009.5 mb 0.00 in0.0 mm 0.00 in0.0 mm 0.00 in0.0 mm
03:30 AM 29.8°F-1.2°C 21.9°F-5.6°C 72% 14.0 mph NNW22.5 kmh NNW 16.7 mph26.9 kmh 29.82 in1009.8 mb 0.00 in0.0 mm 0.00 in0.0 mm 0.00 in0.0 mm
03:40 AM 29.8°F-1.2°C 21.9°F-5.6°C 72% 15.9 mph N25.6 kmh N 20.9 mph33.6 kmh 29.81 in1009.5 mb 0.00 in0.0 mm 0.00 in0.0 mm 0.00 in0.0 mm
03:50 AM 30.0°F-1.1°C 22.1°F-5.5°C 72% 14.1 mph N22.7 kmh N 20.9 mph33.6 kmh 29.81 in1009.5 mb 0.00 in0.0 mm 0.00 in0.0 mm 0.00 in0.0 mm
04:00 AM 30.0°F-1.1°C 22.1°F-5.5°C 72% 14.9 mph NNE24.0 kmh NNE 20.9 mph33.6 kmh 29.81 in1009.5 mb 0.00 in0.0 mm 0.00 in0.0 mm 0.00 in0.0 mm
04:10 AM 29.8°F-1.2°C 21.9°F-5.6°C 72% 12.4 mph N20.0 kmh N 20.9 mph33.6 kmh 29.82 in1009.8 mb 0.00 in0.0 mm 0.00 in0.0 mm 0.00 in0.0 mm
04:20 AM 30.0°F-1.1°C 21.8°F-5.7°C 71% 15.7 mph NNE25.3 kmh NNE 16.7 mph26.9 kmh 29.82 in1009.8 mb 0.00 in0.0 mm 0.00 in0.0 mm 0.00 in0.0 mm
04:30 AM 30.0°F-1.1°C 22.1°F-5.5°C 72% 15.9 mph N25.6 kmh N 21.7 mph34.9 kmh 29.82 in1009.8 mb 0.00 in0.0 mm 0.00 in0.0 mm 0.00 in0.0 mm
04:40 AM 29.8°F-1.2°C 21.9°F-5.6°C 72% 15.1 mph N24.3 kmh N 20.2 mph32.5 kmh 29.82 in1009.8 mb 0.00 in0.0 mm 0.00 in0.0 mm 0.00 in0.0 mm
04:50 AM 30.0°F-1.1°C 22.1°F-5.5°C 72% 15.3 mph NE24.6 kmh NE 22.6 mph36.4 kmh 29.83 in1010.2 mb 0.00 in0.0 mm 0.00 in0.0 mm 0.00 in0.0 mm
05:00 AM 29.8°F-1.2°C 21.9°F-5.6°C 72% 14.2 mph NNW22.9 kmh NNW 24.4 mph39.3 kmh 29.82 in1009.8 mb 0.00 in0.0 mm 0.00 in0.0 mm 0.00 in0.0 mm
05:10 AM 30.0°F-1.1°C 22.1°F-5.5°C 72% 11.9 mph N19.2 kmh N 22.6 mph36.4 kmh 29.83 in1010.2 mb 0.00 in0.0 mm 0.00 in0.0 mm 0.00 in0.0 mm
05:20 AM 30.0°F-1.1°C 22.1°F-5.5°C 72% 16.1 mph NNE25.9 kmh NNE 22.6 mph36.4 kmh 29.83 in1010.2 mb 0.00 in0.0 mm 0.00 in0.0 mm 0.00 in0.0 mm
05:30 AM 30.0°F-1.1°C 22.1°F-5.5°C 72% 14.6 mph NE23.5 kmh NE 21.7 mph34.9 kmh 29.83 in1010.2 mb 0.00 in0.0 mm 0.00 in0.0 mm 0.00 in0.0 mm
05:40 AM 30.0°F-1.1°C 22.4°F-5.3°C 73% 17.3 mph NE27.8 kmh NE 20.2 mph32.5 kmh 29.83 in1010.2 mb 0.00 in0.0 mm 0.00 in0.0 mm 0.00 in0.0 mm
05:50 AM 30.0°F-1.1°C 22.1°F-5.5°C 72% 15.8 mph N25.4 kmh N 19.2 mph30.9 kmh 29.84 in1010.5 mb 0.00 in0.0 mm 0.00 in0.0 mm 0.00 in0.0 mm
06:00 AM 30.0°F-1.1°C 22.1°F-5.5°C 72% 14.9 mph N24.0 kmh N 19.2 mph30.9 kmh 29.84 in1010.5 mb 0.00 in0.0 mm 0.00 in0.0 mm 0.00 in0.0 mm
06:10 AM 30.0°F-1.1°C 22.1°F-5.5°C 72% 18.6 mph NNW29.9 kmh NNW 19.2 mph30.9 kmh 29.84 in1010.5 mb 0.00 in0.0 mm 0.00 in0.0 mm 0.00 in0.0 mm
06:20 AM 30.2°F-1.0°C 22.3°F-5.4°C 72% 17.8 mph N28.6 kmh N 20.9 mph33.6 kmh 29.84 in1010.5 mb 0.00 in0.0 mm 0.00 in0.0 mm 0.00 in0.0 mm
06:30 AM 30.2°F-1.0°C 22.3°F-5.4°C 72% 17.4 mph NE28.0 kmh NE 20.2 mph32.5 kmh 29.84 in1010.5 mb 0.00 in0.0 mm 0.00 in0.0 mm 0.00 in0.0 mm
06:40 AM 30.2°F-1.0°C 21.9°F-5.6°C 71% 17.8 mph NNE28.6 kmh NNE 26.8 mph43.1 kmh 29.85 in1010.8 mb 0.00 in0.0 mm 0.00 in0.0 mm 0.00 in0.0 mm
06:50 AM 30.2°F-1.0°C 22.3°F-5.4°C 72% 13.9 mph N22.4 kmh N 16.7 mph26.9 kmh 29.85 in1010.8 mb 0.00 in0.0 mm 0.00 in0.0 mm 0.00 in0.0 mm
07:00 AM 30.2°F-1.0°C 22.3°F-5.4°C 72% 13.4 mph NE21.6 kmh NE 16.0 mph25.7 kmh 29.85 in1010.8 mb 0.00 in0.0 mm 0.00 in0.0 mm 0.00 in0.0 mm
07:10 AM 30.2°F-1.0°C 22.3°F-5.4°C 72% 11.7 mph NNW18.8 kmh NNW 19.2 mph30.9 kmh 29.86 in1011.2 mb 0.00 in0.0 mm 0.00 in0.0 mm 0.00 in0.0 mm
07:20 AM 30.2°F-1.0°C 22.3°F-5.4°C 72% 12.2 mph N19.6 kmh N 16.0 mph25.7 kmh 29.86 in1011.2 mb 0.00 in0.0 mm 0.00 in0.0 mm 0.00 in0.0 mm
07:30 AM 30.2°F-1.0°C 22.6°F-5.2°C 73% 13.2 mph N21.2 kmh N 16.7 mph26.9 kmh 29.86 in1011.2 mb 0.00 in0.0 mm 0.00 in0.0 mm 0.00 in0.0 mm
07:40 AM 30.4°F-0.9°C 22.8°F-5.1°C 73% 13.9 mph N22.4 kmh N 17.5 mph28.2 kmh 29.86 in1011.2 mb 0.00 in0.0 mm 0.00 in0.0 mm 0.00 in0.0 mm
07:50 AM 30.4°F-0.9°C 22.4°F-5.3°C 72% 16.6 mph NNE26.7 kmh NNE 22.6 mph36.4 kmh 29.87 in1011.5 mb 0.00 in0.0 mm 0.00 in0.0 mm 0.00 in0.0 mm
08:00 AM 30.4°F-0.9°C 22.4°F-5.3°C 72% 16.3 mph NNE26.2 kmh NNE 20.9 mph33.6 kmh 29.87 in1011.5 mb 0.00 in0.0 mm 0.00 in0.0 mm 0.00 in0.0 mm
08:10 AM 30.4°F-0.9°C 22.4°F-5.3°C 72% 15.9 mph NE25.6 kmh NE 17.5 mph28.2 kmh 29.87 in1011.5 mb 0.00 in0.0 mm 0.00 in0.0 mm 0.00 in0.0 mm
08:20 AM 30.6°F-0.8°C 22.6°F-5.2°C 72% 16.5 mph N26.6 kmh N 20.9 mph33.6 kmh 29.88 in1011.9 mb 0.00 in0.0 mm 0.00 in0.0 mm 0.00 in0.0 mm
08:30 AM 30.4°F-0.9°C 22.8°F-5.1°C 73% 16.7 mph NNE26.9 kmh NNE 20.9 mph33.6 kmh 29.88 in1011.9 mb 0.00 in0.0 mm 0.00 in0.0 mm 0.00 in0.0 mm
08:40 AM 30.6°F-0.8°C 22.9°F-5.1°C 73% 15.0 mph N24.1 kmh N 18.5 mph29.8 kmh 29.89 in1012.2 mb 0.00 in0.0 mm 0.00 in0.0 mm 0.00 in0.0 mm
08:50 AM 30.4°F-0.9°C 22.8°F-5.1°C 73% 16.3 mph NNE26.2 kmh NNE 18.5 mph29.8 kmh 29.88 in1011.9 mb 0.00 in0.0 mm 0.00 in0.0 mm 0.00 in0.0 mm
09:00 AM 30.2°F-1.0°C 22.3°F-5.4°C 72% 16.6 mph NE26.7 kmh NE 24.4 mph39.3 kmh 29.89 in1012.2 mb 0.00 in0.0 mm 0.00 in0.0 mm 0.00 in0.0 mm
09:10 AM 30.2°F-1.0°C 22.3°F-5.4°C 72% 17.6 mph N28.3 kmh N 23.4 mph37.7 kmh 29.89 in1012.2 mb 0.00 in0.0 mm 0.00 in0.0 mm 0.00 in0.0 mm
09:20 AM 30.2°F-1.0°C 22.3°F-5.4°C 72% 16.2 mph N26.1 kmh N 23.4 mph37.7 kmh 29.89 in1012.2 mb 0.00 in0.0 mm 0.00 in0.0 mm 0.00 in0.0 mm
09:30 AM 30.4°F-0.9°C 22.4°F-5.3°C 72% 14.7 mph N23.7 kmh N 18.5 mph29.8 kmh 29.89 in1012.2 mb 0.00 in0.0 mm 0.00 in0.0 mm 0.00 in0.0 mm
09:40 AM 30.4°F-0.9°C 22.1°F-5.5°C 71% 17.0 mph NNE27.4 kmh NNE 20.9 mph33.6 kmh 29.89 in1012.2 mb 0.00 in0.0 mm 0.00 in0.0 mm 0.00 in0.0 mm
09:50 AM 30.4°F-0.9°C 22.4°F-5.3°C 72% 15.0 mph NNE24.1 kmh NNE 17.5 mph28.2 kmh 29.89 in1012.2 mb 0.00 in0.0 mm 0.00 in0.0 mm 0.00 in0.0 mm
10:00 AM 30.6°F-0.8°C 22.6°F-5.2°C 72% 15.4 mph NNE24.8 kmh NNE 18.5 mph29.8 kmh 29.89 in1012.2 mb 0.00 in0.0 mm 0.00 in0.0 mm 0.00 in0.0 mm
10:10 AM 30.6°F-0.8°C 22.6°F-5.2°C 72% 14.3 mph WNW23.0 kmh WNW 16.0 mph25.7 kmh 29.90 in1012.5 mb 0.00 in0.0 mm 0.00 in0.0 mm 0.00 in0.0 mm
10:20 AM 30.4°F-0.9°C 22.1°F-5.5°C 71% 14.4 mph NNE23.2 kmh NNE 18.5 mph29.8 kmh 29.90 in1012.5 mb 0.00 in0.0 mm 0.00 in0.0 mm 0.00 in0.0 mm
10:30 AM 30.7°F-0.7°C 22.4°F-5.3°C 71% 13.8 mph NE22.2 kmh NE 23.4 mph37.7 kmh 29.90 in1012.5 mb 0.00 in0.0 mm 0.00 in0.0 mm 0.00 in0.0 mm
10:40 AM 30.7°F-0.7°C 22.4°F-5.3°C 71% 16.0 mph NNE25.7 kmh NNE 21.7 mph34.9 kmh 29.90 in1012.5 mb 0.00 in0.0 mm 0.00 in0.0 mm 0.00 in0.0 mm
10:50 AM 30.6°F-0.8°C 21.9°F-5.6°C 70% 16.0 mph N25.7 kmh N 17.5 mph28.2 kmh 29.90 in1012.5 mb 0.00 in0.0 mm 0.00 in0.0 mm 0.00 in0.0 mm
11:00 AM 30.7°F-0.7°C 22.8°F-5.1°C 72% 16.1 mph NNE25.9 kmh NNE 20.9 mph33.6 kmh 29.90 in1012.5 mb 0.00 in0.0 mm 0.00 in0.0 mm 0.00 in0.0 mm
11:10 AM 30.7°F-0.7°C 22.4°F-5.3°C 71% 14.9 mph NW24.0 kmh NW 20.2 mph32.5 kmh 29.90 in1012.5 mb 0.00 in0.0 mm 0.00 in0.0 mm 0.00 in0.0 mm
11:20 AM 30.7°F-0.7°C 22.4°F-5.3°C 71% 15.1 mph NE24.3 kmh NE 20.2 mph32.5 kmh 29.90 in1012.5 mb 0.00 in0.0 mm 0.00 in0.0 mm 0.00 in0.0 mm
11:30 AM 30.9°F-0.6°C 22.3°F-5.4°C 70% 14.2 mph NE22.9 kmh NE 20.9 mph33.6 kmh 29.89 in1012.2 mb 0.00 in0.0 mm 0.00 in0.0 mm 0.00 in0.0 mm
11:40 AM 30.9°F-0.6°C 21.9°F-5.6°C 69% 14.2 mph NNW22.9 kmh NNW 20.9 mph33.6 kmh 29.89 in1012.2 mb 0.00 in0.0 mm 0.00 in0.0 mm 0.00 in0.0 mm
11:50 AM 30.9°F-0.6°C 21.9°F-5.6°C 69% 15.8 mph N25.4 kmh N 16.7 mph26.9 kmh 29.90 in1012.5 mb 0.00 in0.0 mm 0.00 in0.0 mm 0.00 in0.0 mm
12:00 PM 31.1°F-0.5°C 22.5°F-5.3°C 70% 15.9 mph NE25.6 kmh NE 18.5 mph29.8 kmh 29.90 in1012.5 mb 0.00 in0.0 mm 0.00 in0.0 mm 0.00 in0.0 mm
12:10 PM 31.3°F-0.4°C 22.6°F-5.2°C 70% 12.7 mph NNE20.4 kmh NNE 15.0 mph24.1 kmh 29.90 in1012.5 mb 0.00 in0.0 mm 0.00 in0.0 mm 0.00 in0.0 mm
12:20 PM 31.3°F-0.4°C 22.6°F-5.2°C 70% 15.1 mph NE24.3 kmh NE 19.2 mph30.9 kmh 29.90 in1012.5 mb 0.00 in0.0 mm 0.00 in0.0 mm 0.00 in0.0 mm
12:30 PM 32.0°F0.0°C 22.6°F-5.2°C 68% 16.2 mph NNE26.1 kmh NNE 20.2 mph32.5 kmh 29.90 in1012.5 mb 0.00 in0.0 mm 0.00 in0.0 mm 0.00 in0.0 mm
12:40 PM 31.3°F-0.4°C 22.3°F-5.4°C 69% 14.9 mph N24.0 kmh N 15.0 mph24.1 kmh 29.90 in1012.5 mb 0.00 in0.0 mm 0.00 in0.0 mm 0.00 in0.0 mm
12:50 PM 31.1°F-0.5°C 22.5°F-5.3°C 70% 14.3 mph NE23.0 kmh NE 16.7 mph26.9 kmh 29.90 in1012.5 mb 0.00 in0.0 mm 0.00 in0.0 mm 0.00 in0.0 mm
01:00 PM 31.1°F-0.5°C 23.1°F-4.9°C 72% 14.1 mph N22.7 kmh N 16.0 mph25.7 kmh 29.90 in1012.5 mb 0.00 in0.0 mm 0.00 in0.0 mm 0.00 in0.0 mm
01:10 PM 31.1°F-0.5°C 23.1°F-4.9°C 72% 13.5 mph N21.7 kmh N 11.8 mph19.0 kmh 29.90 in1012.5 mb 0.00 in0.0 mm 0.00 in0.0 mm 0.00 in0.0 mm
01:20 PM 30.9°F-0.6°C 23.0°F-5.0°C 72% 16.8 mph NNE27.0 kmh NNE 18.5 mph29.8 kmh 29.89 in1012.2 mb 0.00 in0.0 mm 0.00 in0.0 mm 0.00 in0.0 mm
01:30 PM 30.9°F-0.6°C 23.3°F-4.8°C 73% 13.4 mph N21.6 kmh N 16.7 mph26.9 kmh 29.89 in1012.2 mb 0.00 in0.0 mm 0.00 in0.0 mm 0.00 in0.0 mm
01:40 PM 30.9°F-0.6°C 23.3°F-4.8°C 73% 14.6 mph NE23.5 kmh NE 16.0 mph25.7 kmh 29.90 in1012.5 mb 0.00 in0.0 mm 0.00 in0.0 mm 0.00 in0.0 mm
01:50 PM 30.9°F-0.6°C 23.3°F-4.8°C 73% 14.5 mph NE23.3 kmh NE 21.7 mph34.9 kmh 29.89 in1012.2 mb 0.00 in0.0 mm 0.00 in0.0 mm 0.00 in0.0 mm
02:00 PM 30.9°F-0.6°C 23.3°F-4.8°C 73% 14.1 mph N22.7 kmh N 17.5 mph28.2 kmh 29.89 in1012.2 mb 0.00 in0.0 mm 0.00 in0.0 mm 0.00 in0.0 mm
02:10 PM 30.9°F-0.6°C 23.0°F-5.0°C 72% 15.5 mph NE24.9 kmh NE 18.5 mph29.8 kmh 29.89 in1012.2 mb 0.00 in0.0 mm 0.00 in0.0 mm 0.00 in0.0 mm
02:20 PM 30.9°F-0.6°C 23.0°F-5.0°C 72% 15.2 mph NNE24.5 kmh NNE 17.5 mph28.2 kmh 29.89 in1012.2 mb 0.00 in0.0 mm 0.00 in0.0 mm 0.00 in0.0 mm
02:30 PM 30.9°F-0.6°C 23.0°F-5.0°C 72% 16.3 mph N26.2 kmh N 20.2 mph32.5 kmh 29.90 in1012.5 mb 0.00 in0.0 mm 0.00 in0.0 mm 0.00 in0.0 mm
02:40 PM 30.9°F-0.6°C 23.0°F-5.0°C 72% 13.4 mph N21.6 kmh N 20.2 mph32.5 kmh 29.90 in1012.5 mb 0.00 in0.0 mm 0.00 in0.0 mm 0.00 in0.0 mm
02:50 PM 30.7°F-0.7°C 22.8°F-5.1°C 72% 17.0 mph NNE27.4 kmh NNE 18.5 mph29.8 kmh 29.89 in1012.2 mb 0.00 in0.0 mm 0.00 in0.0 mm 0.00 in0.0 mm
03:00 PM 30.7°F-0.7°C 22.8°F-5.1°C 72% 15.3 mph NNE24.6 kmh NNE 20.2 mph32.5 kmh 29.90 in1012.5 mb 0.00 in0.0 mm 0.00 in0.0 mm 0.00 in0.0 mm
03:10 PM 30.7°F-0.7°C 22.8°F-5.1°C 72% 14.5 mph N23.3 kmh N 13.3 mph21.4 kmh 29.90 in1012.5 mb 0.00 in0.0 mm 0.00 in0.0 mm 0.00 in0.0 mm
03:20 PM 30.9°F-0.6°C 22.6°F-5.2°C 71% 16.1 mph NNE25.9 kmh NNE 20.2 mph32.5 kmh 29.90 in1012.5 mb 0.00 in0.0 mm 0.00 in0.0 mm 0.00 in0.0 mm
03:30 PM 30.9°F-0.6°C 23.0°F-5.0°C 72% 15.3 mph NNE24.6 kmh NNE 14.3 mph23.0 kmh 29.90 in1012.5 mb 0.00 in0.0 mm 0.00 in0.0 mm 0.00 in0.0 mm
03:40 PM 30.9°F-0.6°C 23.0°F-5.0°C 72% 16.1 mph N25.9 kmh N 20.9 mph33.6 kmh 29.90 in1012.5 mb 0.00 in0.0 mm 0.00 in0.0 mm 0.00 in0.0 mm
03:50 PM 30.9°F-0.6°C 23.0°F-5.0°C 72% 13.1 mph NE21.1 kmh NE 18.5 mph29.8 kmh 29.90 in1012.5 mb 0.00 in0.0 mm 0.00 in0.0 mm 0.00 in0.0 mm
04:00 PM 30.9°F-0.6°C 22.6°F-5.2°C 71% 14.0 mph N22.5 kmh N 15.0 mph24.1 kmh 29.90 in1012.5 mb 0.00 in0.0 mm 0.00 in0.0 mm 0.00 in0.0 mm
04:10 PM 30.9°F-0.6°C 22.3°F-5.4°C 70% 15.2 mph NE24.5 kmh NE 19.2 mph30.9 kmh 29.90 in1012.5 mb 0.00 in0.0 mm 0.00 in0.0 mm 0.00 in0.0 mm
04:20 PM 30.9°F-0.6°C 23.0°F-5.0°C 72% 14.5 mph NE23.3 kmh NE 19.2 mph30.9 kmh 29.90 in1012.5 mb 0.00 in0.0 mm 0.00 in0.0 mm 0.00 in0.0 mm
04:30 PM 30.9°F-0.6°C 22.6°F-5.2°C 71% 14.9 mph NE24.0 kmh NE 18.5 mph29.8 kmh 29.90 in1012.5 mb 0.00 in0.0 mm 0.00 in0.0 mm 0.00 in0.0 mm
04:40 PM 30.9°F-0.6°C 22.3°F-5.4°C 70% 13.5 mph N21.7 kmh N 18.5 mph29.8 kmh 29.90 in1012.5 mb 0.00 in0.0 mm 0.00 in0.0 mm 0.00 in0.0 mm
04:50 PM 30.9°F-0.6°C 22.3°F-5.4°C 70% 15.2 mph NNE24.5 kmh NNE 16.7 mph26.9 kmh 29.90 in1012.5 mb 0.00 in0.0 mm 0.00 in0.0 mm 0.00 in0.0 mm
05:00 PM 30.9°F-0.6°C 21.9°F-5.6°C 69% 16.2 mph NNE26.1 kmh NNE 16.7 mph26.9 kmh 29.90 in1012.5 mb 0.00 in0.0 mm 0.00 in0.0 mm 0.00 in0.0 mm
05:10 PM 31.1°F-0.5°C 23.1°F-4.9°C 72% 13.1 mph N21.1 kmh N 15.0 mph24.1 kmh 29.91 in1012.9 mb 0.00 in0.0 mm 0.00 in0.0 mm 0.00 in0.0 mm
05:20 PM 31.1°F-0.5°C 22.5°F-5.3°C 70% 13.6 mph NNE21.9 kmh NNE 18.5 mph29.8 kmh 29.91 in1012.9 mb 0.00 in0.0 mm 0.00 in0.0 mm 0.00 in0.0 mm
05:30 PM 31.1°F-0.5°C 22.1°F-5.5°C 69% 16.7 mph NE26.9 kmh NE 18.5 mph29.8 kmh 29.91 in1012.9 mb 0.00 in0.0 mm 0.00 in0.0 mm 0.00 in0.0 mm
05:40 PM 31.1°F-0.5°C 22.1°F-5.5°C 69% 13.7 mph N22.0 kmh N 16.0 mph25.7 kmh 29.91 in1012.9 mb 0.00 in0.0 mm 0.00 in0.0 mm 0.00 in0.0 mm
05:50 PM 31.3°F-0.4°C 22.3°F-5.4°C 69% 14.2 mph N22.9 kmh N 14.3 mph23.0 kmh 29.92 in1013.2 mb 0.00 in0.0 mm 0.00 in0.0 mm 0.00 in0.0 mm
06:00 PM 31.3°F-0.4°C 21.9°F-5.6°C 68% 14.5 mph N23.3 kmh N 16.0 mph25.7 kmh 29.92 in1013.2 mb 0.00 in0.0 mm 0.00 in0.0 mm 0.00 in0.0 mm
06:10 PM 31.5°F-0.3°C 22.5°F-5.3°C 69% 16.0 mph NE25.7 kmh NE 17.5 mph28.2 kmh 29.92 in1013.2 mb 0.00 in0.0 mm 0.00 in0.0 mm 0.00 in0.0 mm
06:20 PM 31.5°F-0.3°C 21.4°F-5.9°C 66% 16.8 mph NE27.0 kmh NE 20.9 mph33.6 kmh 29.92 in1013.2 mb 0.00 in0.0 mm 0.00 in0.0 mm 0.00 in0.0 mm
06:30 PM 31.5°F-0.3°C 22.1°F-5.5°C 68% 13.2 mph NNE21.2 kmh NNE 16.7 mph26.9 kmh 29.92 in1013.2 mb 0.00 in0.0 mm 0.00 in0.0 mm 0.00 in0.0 mm
06:40 PM 31.6°F-0.2°C 22.6°F-5.2°C 69% 14.8 mph N23.8 kmh N 15.0 mph24.1 kmh 29.93 in1013.5 mb 0.00 in0.0 mm 0.00 in0.0 mm 0.00 in0.0 mm
06:50 PM 31.6°F-0.2°C 21.9°F-5.6°C 67% 12.7 mph N20.4 kmh N 16.0 mph25.7 kmh 29.92 in1013.2 mb 0.00 in0.0 mm 0.00 in0.0 mm 0.00 in0.0 mm
07:00 PM 31.6°F-0.2°C 21.6°F-5.8°C 66% 15.4 mph NE24.8 kmh NE 19.2 mph30.9 kmh 29.93 in1013.5 mb 0.00 in0.0 mm 0.00 in0.0 mm 0.00 in0.0 mm
07:10 PM 31.8°F-0.1°C 21.7°F-5.7°C 66% 14.8 mph N23.8 kmh N 20.2 mph32.5 kmh 29.93 in1013.5 mb 0.00 in0.0 mm 0.00 in0.0 mm 0.00 in0.0 mm
07:20 PM 31.8°F-0.1°C 22.1°F-5.5°C 67% 12.7 mph N20.4 kmh N 14.3 mph23.0 kmh 29.93 in1013.5 mb 0.00 in0.0 mm 0.00 in0.0 mm 0.00 in0.0 mm
07:30 PM 32.0°F0.0°C 23.0°F-5.0°C 69% 13.7 mph NE22.0 kmh NE 17.5 mph28.2 kmh 29.93 in1013.5 mb 0.00 in0.0 mm 0.00 in0.0 mm 0.00 in0.0 mm
07:40 PM 32.0°F0.0°C 21.9°F-5.6°C 66% 13.9 mph NNW22.4 kmh NNW 16.7 mph26.9 kmh 29.94 in1013.9 mb 0.00 in0.0 mm 0.00 in0.0 mm 0.00 in0.0 mm
07:50 PM 32.2°F0.1°C 22.4°F-5.3°C 67% 13.8 mph NE22.2 kmh NE 17.5 mph28.2 kmh 29.93 in1013.5 mb 0.00 in0.0 mm 0.00 in0.0 mm 0.00 in0.0 mm
08:00 PM 32.0°F0.0°C 21.9°F-5.6°C 66% 12.8 mph N20.6 kmh N 19.2 mph30.9 kmh 29.93 in1013.5 mb 0.00 in0.0 mm 0.00 in0.0 mm 0.00 in0.0 mm
08:10 PM 32.0°F0.0°C 21.2°F-6.0°C 64% 14.2 mph NE22.9 kmh NE 17.5 mph28.2 kmh 29.94 in1013.9 mb 0.00 in0.0 mm 0.00 in0.0 mm 0.00 in0.0 mm
08:20 PM 32.2°F0.1°C 22.1°F-5.5°C 66% 13.0 mph NNE20.9 kmh NNE 14.3 mph23.0 kmh 29.94 in1013.9 mb 0.00 in0.0 mm 0.00 in0.0 mm 0.00 in0.0 mm
08:30 PM 32.2°F0.1°C 21.7°F-5.7°C 65% 14.9 mph NNE24.0 kmh NNE 15.0 mph24.1 kmh 29.95 in1014.2 mb 0.00 in0.0 mm 0.00 in0.0 mm 0.00 in0.0 mm
08:40 PM 32.4°F0.2°C 22.6°F-5.2°C 67% 13.3 mph NE21.4 kmh NE 19.2 mph30.9 kmh 29.95 in1014.2 mb 0.00 in0.0 mm 0.00 in0.0 mm 0.00 in0.0 mm
08:50 PM 32.4°F0.2°C 22.6°F-5.2°C 67% 14.0 mph NW22.5 kmh NW 20.2 mph32.5 kmh 29.95 in1014.2 mb 0.00 in0.0 mm 0.00 in0.0 mm 0.00 in0.0 mm
09:00 PM 32.4°F0.2°C 22.3°F-5.4°C 66% 13.6 mph NNE21.9 kmh NNE 16.0 mph25.7 kmh 29.95 in1014.2 mb 0.00 in0.0 mm 0.00 in0.0 mm 0.00 in0.0 mm
09:10 PM 32.4°F0.2°C 22.3°F-5.4°C 66% 13.6 mph N21.9 kmh N 18.5 mph29.8 kmh 29.94 in1013.9 mb 0.00 in0.0 mm 0.00 in0.0 mm 0.00 in0.0 mm
09:20 PM 32.4°F0.2°C 21.9°F-5.6°C 65% 14.2 mph NNE22.9 kmh NNE 20.2 mph32.5 kmh 29.95 in1014.2 mb 0.00 in0.0 mm 0.00 in0.0 mm 0.00 in0.0 mm
09:30 PM 32.4°F0.2°C 22.6°F-5.2°C 67% 12.2 mph NNE19.6 kmh NNE 14.3 mph23.0 kmh 29.94 in1013.9 mb 0.00 in0.0 mm 0.00 in0.0 mm 0.00 in0.0 mm
09:40 PM 32.4°F0.2°C 21.9°F-5.6°C 65% 14.6 mph NNE23.5 kmh NNE 16.7 mph26.9 kmh 29.95 in1014.2 mb 0.00 in0.0 mm 0.00 in0.0 mm 0.00 in0.0 mm
09:50 PM 32.5°F0.3°C 22.4°F-5.3°C 66% 13.9 mph NE22.4 kmh NE 16.0 mph25.7 kmh 29.94 in1013.9 mb 0.00 in0.0 mm 0.00 in0.0 mm 0.00 in0.0 mm
10:00 PM 32.5°F0.3°C 22.1°F-5.5°C 65% 12.7 mph N20.4 kmh N 14.3 mph23.0 kmh 29.95 in1014.2 mb 0.00 in0.0 mm 0.00 in0.0 mm 0.00 in0.0 mm
10:10 PM 32.5°F0.3°C 22.4°F-5.3°C 66% 12.5 mph E20.1 kmh E 11.8 mph19.0 kmh 29.95 in1014.2 mb 0.00 in0.0 mm 0.00 in0.0 mm 0.00 in0.0 mm
10:20 PM 32.5°F0.3°C 22.4°F-5.3°C 66% 13.3 mph N21.4 kmh N 17.5 mph28.2 kmh 29.94 in1013.9 mb 0.00 in0.0 mm 0.00 in0.0 mm 0.00 in0.0 mm
10:30 PM 32.7°F0.4°C 22.6°F-5.2°C 66% 12.5 mph N20.1 kmh N 17.5 mph28.2 kmh 29.95 in1014.2 mb 0.00 in0.0 mm 0.00 in0.0 mm 0.00 in0.0 mm
10:40 PM 32.7°F0.4°C 22.2°F-5.4°C 65% 12.7 mph NNE20.4 kmh NNE 14.3 mph23.0 kmh 29.95 in1014.2 mb 0.00 in0.0 mm 0.00 in0.0 mm 0.00 in0.0 mm
10:50 PM 32.7°F0.4°C 22.6°F-5.2°C 66% 11.8 mph N19.0 kmh N 12.5 mph20.1 kmh 29.95 in1014.2 mb 0.00 in0.0 mm 0.00 in0.0 mm 0.00 in0.0 mm
11:00 PM 32.7°F0.4°C 22.2°F-5.4°C 65% 11.3 mph NNE18.2 kmh NNE 13.3 mph21.4 kmh 29.95 in1014.2 mb 0.00 in0.0 mm 0.00 in0.0 mm 0.00 in0.0 mm
11:10 PM 32.7°F0.4°C 22.2°F-5.4°C 65% 11.1 mph NE17.9 kmh NE 10.8 mph17.4 kmh 29.95 in1014.2 mb 0.00 in0.0 mm 0.00 in0.0 mm 0.00 in0.0 mm
11:20 PM 32.7°F0.4°C 21.9°F-5.6°C 64% 12.4 mph NE20.0 kmh NE 17.5 mph28.2 kmh 29.95 in1014.2 mb 0.00 in0.0 mm 0.00 in0.0 mm 0.00 in0.0 mm
11:30 PM 32.7°F0.4°C 22.6°F-5.2°C 66% 11.6 mph N18.7 kmh N 17.5 mph28.2 kmh 29.95 in1014.2 mb 0.00 in0.0 mm 0.00 in0.0 mm 0.00 in0.0 mm
11:40 PM 32.5°F0.3°C 22.1°F-5.5°C 65% 9.3 mph NNE15.0 kmh NNE 11.8 mph19.0 kmh 29.95 in1014.2 mb 0.00 in0.0 mm 0.00 in0.0 mm 0.00 in0.0 mm
11:50 PM 32.7°F0.4°C 21.9°F-5.6°C 64% 11.0 mph NNE17.7 kmh NNE 12.5 mph20.1 kmh 29.95 in1014.2 mb 0.00 in0.0 mm 0.00 in0.0 mm 0.00 in0.0 mm